Time;durP1;ratioP1;P1;durP2;ratioP2;P2;SDS_P1;SDS_P2;PMS_P1;PMS_P2;Temp;Humidity;BMP_temperature;BMP_pressure;BME280_temperature;BME280_humidity;BME280_pressure;Samples;Min_cycle;Max_cycle;Signal;HPM_P1;HPM_P2
2022/01/08 00:01:13;;;;;;;11.10;6.15;;;;;;;1.85;100.00;100677.53;10087298;28;20112;-64
2022/01/08 00:06:12;;;;;;;12.45;6.97;;;;;;;1.92;100.00;100687.28;10100089;28;20054;-64
2022/01/08 00:11:10;;;;;;;10.65;6.57;;;;;;;1.84;100.00;100684.00;10102055;28;20079;-65
2022/01/08 00:16:07;;;;;;;10.85;5.97;;;;;;;1.81;100.00;100681.81;10095454;28;20137;-66
2022/01/08 00:21:03;;;;;;;12.60;6.38;;;;;;;1.82;100.00;100683.44;10093269;28;20040;-65
2022/01/08 00:26:00;;;;;;;16.02;7.45;;;;;;;1.92;100.00;100703.44;10092346;28;20585;-65
2022/01/08 00:30:56;;;;;;;11.27;6.75;;;;;;;1.79;100.00;100694.75;10093454;28;20118;-63
2022/01/08 00:35:53;;;;;;;13.07;8.38;;;;;;;1.76;100.00;100684.47;10091896;28;20102;-64
2022/01/08 00:40:49;;;;;;;13.35;8.00;;;;;;;1.69;100.00;100678.50;10098105;28;20109;-64
2022/01/08 00:45:46;;;;;;;14.60;8.15;;;;;;;1.72;100.00;100683.38;10096505;28;20062;-63
2022/01/08 00:50:42;;;;;;;13.05;7.65;;;;;;;1.64;100.00;100676.56;10089967;28;20467;-63
2022/01/08 00:55:39;;;;;;;13.10;7.38;;;;;;;1.65;100.00;100688.19;10094679;28;20511;-66
2022/01/08 01:00:36;;;;;;;13.02;8.07;;;;;;;1.71;100.00;100676.34;10091051;28;20423;-66
2022/01/08 01:05:32;;;;;;;21.08;9.90;;;;;;;1.69;100.00;100673.09;10088968;28;20047;-64
2022/01/08 01:10:29;;;;;;;20.02;10.43;;;;;;;1.78;100.00;100676.94;10091964;28;21632;-63
2022/01/08 01:15:25;;;;;;;21.17;11.88;;;;;;;1.66;100.00;100679.03;10092649;28;20063;-63
2022/01/08 01:20:22;;;;;;;20.88;11.38;;;;;;;1.65;100.00;100690.88;10089882;28;20130;-65
2022/01/08 01:25:25;;;;;;;19.23;11.45;;;;;;;1.68;100.00;100687.66;10091981;28;20059;-65
2022/01/08 01:30:40;;;;;;;22.00;11.35;;;;;;;1.60;100.00;100680.03;10100470;28;20109;-65
2022/01/08 01:41:11;;;;;;;18.55;10.93;;;;;;;1.72;100.00;100683.38;10093823;28;20059;-66
2022/01/08 01:41:22;;;;;;;19.00;11.18;;;;;;;1.67;100.00;100686.03;10096266;28;20043;-65
2022/01/08 01:51:34;;;;;;;18.67;11.70;;;;;;;1.73;100.00;100674.22;10097811;28;20506;-66
2022/01/08 01:56:31;;;;;;;21.45;11.85;;;;;;;1.69;100.00;100689.28;10087968;28;20142;-65
2022/01/08 02:01:28;;;;;;;15.77;9.95;;;;;;;1.56;100.00;100692.44;10093915;28;20046;-65
2022/01/08 02:06:24;;;;;;;18.67;9.68;;;;;;;1.56;100.00;100695.13;10093967;28;20055;-63
2022/01/08 02:11:22;;;;;;;15.43;9.85;;;;;;;1.57;100.00;100694.06;10093704;28;20054;-66
2022/01/08 02:16:20;;;;;;;15.18;9.25;;;;;;;1.58;100.00;100687.56;10084078;28;20134;-65
2022/01/08 02:21:17;;;;;;;15.45;9.82;;;;;;;1.57;100.00;100691.34;10088891;28;20418;-65
2022/01/08 02:26:13;;;;;;;13.43;8.85;;;;;;;1.57;100.00;100686.78;10081881;28;20039;-64
2022/01/08 02:31:23;;;;;;;12.73;8.73;;;;;;;1.58;100.00;100688.41;10088959;28;20063;-63
2022/01/08 02:36:20;;;;;;;15.43;9.15;;;;;;;1.52;100.00;100688.63;10092898;28;20038;-63
2022/01/08 02:41:16;;;;;;;14.82;9.90;;;;;;;1.58;100.00;100691.09;10086517;28;20097;-63
2022/01/08 02:46:13;;;;;;;17.05;9.75;;;;;;;1.64;100.00;100700.84;10085477;28;20133;-68
2022/01/08 02:51:10;;;;;;;17.90;9.30;;;;;;;1.59;100.00;100689.22;10087446;28;20182;-67
2022/01/08 02:56:06;;;;;;;12.52;8.50;;;;;;;1.50;100.00;100691.56;10093310;28;20047;-67
2022/01/08 03:01:03;;;;;;;13.52;9.15;;;;;;;1.55;100.00;100688.09;10081443;28;20134;-66
2022/01/08 03:05:59;;;;;;;21.02;10.48;;;;;;;1.61;100.00;100687.06;10085554;28;20051;-67
2022/01/08 03:10:56;;;;;;;16.67;10.30;;;;;;;1.56;100.00;100678.97;10085171;28;20075;-65
2022/01/08 03:15:52;;;;;;;13.07;9.10;;;;;;;1.62;100.00;100672.53;10088765;28;20098;-64
2022/01/08 03:21:01;;;;;;;16.75;8.35;;;;;;;1.65;100.00;100682.81;10082933;28;20227;-64
2022/01/08 03:25:57;;;;;;;16.63;9.02;;;;;;;1.63;100.00;100684.94;10084498;28;20051;-64
2022/01/08 03:30:53;;;;;;;13.77;9.10;;;;;;;1.62;100.00;100686.00;10086352;28;20055;-64
2022/01/08 03:35:50;;;;;;;17.35;9.73;;;;;;;1.63;100.00;100693.03;10085310;28;20043;-68
2022/01/08 03:40:46;;;;;;;15.35;9.63;;;;;;;1.51;100.00;100693.22;10082501;28;20071;-68
2022/01/08 03:45:43;;;;;;;14.55;9.40;;;;;;;1.63;100.00;100685.75;10086729;28;20094;-65
2022/01/08 03:50:40;;;;;;;15.98;10.65;;;;;;;1.58;100.00;100691.09;10084328;28;20565;-68
2022/01/08 03:55:36;;;;;;;18.58;9.10;;;;;;;1.53;100.00;100695.63;10086377;28;20047;-68
2022/01/08 04:00:33;;;;;;;18.20;10.02;;;;;;;1.67;100.00;100692.25;10081413;28;20047;-67
2022/01/08 04:05:30;;;;;;;17.00;10.90;;;;;;;1.63;100.00;100706.50;10078261;28;20054;-67
2022/01/08 04:10:26;;;;;;;18.83;9.98;;;;;;;1.53;100.00;100696.44;10086237;28;20122;-66
2022/01/08 04:20:21;;;;;;;17.70;10.05;;;;;;;1.39;100.00;100677.22;10088970;28;20043;-67
2022/01/08 04:25:21;;;;;;;20.45;9.40;;;;;;;1.54;100.00;100681.09;10091958;28;20093;-67
2022/01/08 04:30:18;;;;;;;18.88;8.90;;;;;;;1.60;100.00;100663.88;10091153;28;20039;-66
2022/01/08 04:35:14;;;;;;;17.52;10.27;;;;;;;1.58;100.00;100660.63;10087480;28;20110;-66
2022/01/08 04:40:11;;;;;;;21.27;12.10;;;;;;;1.59;100.00;100652.28;10097577;28;20047;-66
2022/01/08 04:45:08;;;;;;;19.15;12.38;;;;;;;1.71;100.00;100654.78;10090805;28;20082;-66
2022/01/08 04:50:05;;;;;;;21.75;13.45;;;;;;;1.75;100.00;100671.28;10086738;28;20552;-65
2022/01/08 04:55:01;;;;;;;24.85;14.52;;;;;;;1.78;100.00;100682.31;10096947;28;20649;-65
2022/01/08 04:59:58;;;;;;;22.70;12.55;;;;;;;1.79;100.00;100670.50;10091539;28;20074;-65
2022/01/08 05:04:54;;;;;;;25.63;13.15;;;;;;;1.75;100.00;100677.47;10090788;28;20070;-64
2022/01/08 05:09:51;;;;;;;23.13;13.35;;;;;;;1.83;100.00;100663.50;10091106;28;20039;-64
2022/01/08 05:14:48;;;;;;;21.83;11.18;;;;;;;1.81;100.00;100671.03;10086187;28;20054;-64
2022/01/08 05:19:48;;;;;;;22.05;10.98;;;;;;;1.69;100.00;100665.03;10091144;28;20038;-64
2022/01/08 05:24:45;;;;;;;19.15;10.23;;;;;;;1.67;100.00;100661.75;10084701;28;20070;-64
2022/01/08 05:29:42;;;;;;;20.10;11.32;;;;;;;1.65;100.00;100661.25;10086441;28;20639;-64
2022/01/08 05:34:39;;;;;;;18.27;10.18;;;;;;;1.73;100.00;100676.09;10082908;28;20654;-64
2022/01/08 05:39:36;;;;;;;24.65;12.82;;;;;;;1.67;100.00;100664.47;10101112;28;20515;-64
2022/01/08 05:44:32;;;;;;;21.35;10.70;;;;;;;1.68;100.00;100687.66;10089857;28;20511;-64
2022/01/08 05:49:29;;;;;;;17.40;9.23;;;;;;;1.73;100.00;100678.81;10093514;28;20114;-66
2022/01/08 05:54:26;;;;;;;20.70;11.15;;;;;;;1.82;100.00;100688.03;10090624;28;20046;-64
2022/01/08 05:59:24;;;;;;;19.85;11.40;;;;;;;1.89;100.00;100694.81;10082929;28;20039;-64
2022/01/08 06:04:21;;;;;;;27.10;12.32;;;;;;;1.85;100.00;100704.47;10099984;28;20129;-64
2022/01/08 06:09:17;;;;;;;23.83;13.07;;;;;;;1.86;100.00;100699.91;10080219;28;20098;-64
2022/01/08 06:14:14;;;;;;;23.85;13.38;;;;;;;1.88;100.00;100701.28;10088260;28;20075;-64
2022/01/08 06:19:12;;;;;;;25.55;15.18;;;;;;;1.99;100.00;100698.63;10082273;28;20127;-64
2022/01/08 06:24:09;;;;;;;24.13;15.25;;;;;;;2.03;100.00;100710.53;10088907;28;20130;-66
2022/01/08 06:29:06;;;;;;;25.15;14.85;;;;;;;1.91;100.00;100718.03;10091790;28;20047;-66
2022/01/08 06:34:03;;;;;;;26.98;16.02;;;;;;;1.95;100.00;100729.88;10086630;28;20047;-66
2022/01/08 06:39:00;;;;;;;25.67;15.55;;;;;;;1.97;100.00;100738.53;10103747;28;20047;-66
2022/01/08 06:43:57;;;;;;;27.25;15.85;;;;;;;1.71;100.00;100759.09;10088307;28;20070;-66
2022/01/08 06:48:54;;;;;;;25.90;14.73;;;;;;;1.76;100.00;100761.84;10098100;28;20995;-66
2022/01/08 06:53:50;;;;;;;24.13;13.77;;;;;;;1.68;100.00;100768.53;10087382;28;20122;-66
2022/01/08 06:58:47;;;;;;;27.27;15.15;;;;;;;1.75;100.00;100750.25;10094044;28;20627;-67
2022/01/08 07:03:44;;;;;;;29.48;15.38;;;;;;;1.68;100.00;100749.66;10089073;28;20043;-67
2022/01/08 07:08:40;;;;;;;22.02;13.48;;;;;;;1.66;100.00;100749.09;10086734;28;20045;-66
2022/01/08 07:13:37;;;;;;;25.42;13.80;;;;;;;1.79;100.00;100745.97;10094455;28;20070;-67
2022/01/08 07:18:34;;;;;;;22.42;13.82;;;;;;;1.71;100.00;100741.06;10080006;28;20043;-67
2022/01/08 07:23:30;;;;;;;23.48;12.52;;;;;;;1.75;100.00;100758.34;10083562;28;20082;-64
2022/01/08 07:28:26;;;;;;;23.85;13.75;;;;;;;1.84;100.00;100740.63;10085878;28;20054;-64
2022/01/08 07:33:23;;;;;;;24.77;12.68;;;;;;;1.74;100.00;100745.94;10085111;28;20051;-66
2022/01/08 07:38:20;;;;;;;25.10;13.45;;;;;;;1.84;100.00;100746.00;10088114;28;20043;-65
2022/01/08 07:43:19;;;;;;;34.80;16.08;;;;;;;1.85;100.00;100739.53;10088290;28;20181;-65
2022/01/08 07:48:16;;;;;;;33.20;16.35;;;;;;;1.80;100.00;100744.88;10098306;28;20047;-63
2022/01/08 07:53:13;;;;;;;28.58;14.60;;;;;;;1.82;100.00;100748.16;10091046;28;20050;-65
2022/01/08 07:58:09;;;;;;;25.90;14.38;;;;;;;1.83;100.00;100728.22;10092497;28;20158;-66
2022/01/08 08:03:06;;;;;;;30.00;16.13;;;;;;;1.85;100.00;100731.44;10088934;28;20506;-66
2022/01/08 08:08:02;;;;;;;35.10;17.98;;;;;;;1.95;100.00;100736.13;10089311;28;20503;-66
2022/01/08 08:13:00;;;;;;;30.83;18.15;;;;;;;1.87;100.00;100728.50;10100475;28;20078;-66
2022/01/08 08:17:56;;;;;;;36.30;18.55;;;;;;;1.97;100.00;100722.34;10095422;28;20575;-66
2022/01/08 08:22:53;;;;;;;32.65;18.98;;;;;;;2.04;100.00;100723.78;10088271;28;20182;-68
2022/01/08 08:27:50;;;;;;;30.63;18.90;;;;;;;2.02;100.00;100719.69;10095490;28;20102;-68
2022/01/08 08:32:47;;;;;;;32.10;19.50;;;;;;;2.17;100.00;100727.88;10089400;28;20066;-69
2022/01/08 08:37:43;;;;;;;32.58;17.65;;;;;;;2.12;100.00;100714.38;10085889;28;20090;-69
2022/01/08 08:42:42;;;;;;;34.50;18.55;;;;;;;2.14;100.00;100712.22;10092394;28;20097;-69
2022/01/08 08:47:39;;;;;;;33.33;17.38;;;;;;;2.08;100.00;100714.06;10085082;28;20463;-68
2022/01/08 08:52:36;;;;;;;38.30;17.67;;;;;;;2.02;100.00;100706.19;10092452;28;20058;-70
2022/01/08 08:57:33;;;;;;;26.08;16.13;;;;;;;2.10;100.00;100703.81;10087861;28;20040;-68
2022/01/08 09:02:29;;;;;;;32.38;18.98;;;;;;;2.12;100.00;100692.78;10102305;28;20108;-68
2022/01/08 09:07:29;;;;;;;31.23;19.10;;;;;;;2.19;100.00;100704.16;10101127;28;20139;-70
2022/01/08 09:12:26;;;;;;;31.15;17.25;;;;;;;2.29;100.00;100698.78;10101633;28;20178;-70
2022/01/08 09:17:25;;;;;;;28.35;16.83;;;;;;;2.28;100.00;100702.56;10093282;28;20179;-70
2022/01/08 09:22:22;;;;;;;30.23;16.77;;;;;;;2.51;100.00;100700.53;10085569;28;20051;-67
2022/01/08 09:27:19;;;;;;;28.70;15.63;;;;;;;2.48;100.00;100711.81;10092098;28;20464;-68
2022/01/08 09:32:21;;;;;;;29.27;15.52;;;;;;;2.43;100.00;100703.72;10095876;28;20570;-69
2022/01/08 09:37:18;;;;;;;30.48;14.23;;;;;;;2.42;100.00;100697.50;10077389;28;20053;-68
2022/01/08 09:42:16;;;;;;;26.38;13.05;;;;;;;2.29;100.00;100704.19;10088100;28;20577;-68
2022/01/08 09:47:13;;;;;;;19.77;11.45;;;;;;;2.15;100.00;100708.44;10085267;28;20051;-68
2022/01/08 09:52:10;;;;;;;24.63;13.20;;;;;;;2.25;100.00;100702.28;10082559;28;20078;-68
2022/01/08 09:57:06;;;;;;;23.50;11.15;;;;;;;2.54;100.00;100686.50;10089457;28;20535;-69
2022/01/08 10:02:04;;;;;;;15.48;8.55;;;;;;;2.39;100.00;100708.00;10088192;28;20051;-68
2022/01/08 10:07:19;;;;;;;23.15;12.18;;;;;;;2.67;100.00;100704.91;10096564;28;20043;-68
2022/01/08 10:12:16;;;;;;;17.35;9.23;;;;;;;2.77;100.00;100708.69;10088796;28;20495;-68
2022/01/08 10:17:13;;;;;;;21.80;10.73;;;;;;;2.73;100.00;100703.00;10091257;28;20047;-68
2022/01/08 10:22:15;;;;;;;23.13;11.98;;;;;;;2.81;100.00;100709.78;10086950;28;20048;-68
2022/01/08 10:27:11;;;;;;;19.77;9.57;;;;;;;2.75;100.00;100706.25;10083991;28;20082;-68
2022/01/08 10:32:08;;;;;;;21.30;12.18;;;;;;;3.19;100.00;100694.19;10105766;28;20126;-68
2022/01/08 10:37:05;;;;;;;20.90;11.68;;;;;;;3.25;100.00;100693.09;10099692;28;20711;-68
2022/01/08 10:42:09;;;;;;;17.67;10.75;;;;;;;3.42;100.00;100688.25;10085679;28;20519;-68
2022/01/08 10:47:10;;;;;;;18.30;11.50;;;;;;;3.45;100.00;100671.47;10085205;28;20061;-69
2022/01/08 10:52:19;;;;;;;25.98;11.35;;;;;;;3.53;100.00;100678.25;10079617;28;20122;-70
2022/01/08 10:57:16;;;;;;;19.42;10.80;;;;;;;3.64;100.00;100668.22;10083015;28;20392;-69
2022/01/08 11:02:15;;;;;;;17.48;9.73;;;;;;;3.46;100.00;100650.66;10077910;28;20105;-70
2022/01/08 11:07:38;;;;;;;18.25;11.18;;;;;;;3.36;100.00;100665.00;10076898;28;20142;-69
2022/01/08 11:12:39;;;;;;;18.37;9.93;;;;;;;3.53;100.00;100662.84;10091103;28;20138;-69
2022/01/08 11:17:38;;;;;;;15.82;8.88;;;;;;;3.36;100.00;100654.19;10076378;28;20078;-69
2022/01/08 11:22:37;;;;;;;19.70;9.57;;;;;;;3.67;100.00;100629.84;10068784;28;20050;-68
2022/01/08 11:27:40;;;;;;;18.33;10.77;;;;;;;3.91;100.00;100625.44;10087545;28;20134;-69
2022/01/08 11:32:38;;;;;;;18.98;10.60;;;;;;;4.13;100.00;100605.31;10086211;28;20153;-68
2022/01/08 11:37:56;;;;;;;17.83;8.45;;;;;;;4.15;100.00;100595.03;10078453;28;20142;-68
2022/01/08 11:42:53;;;;;;;18.95;9.10;;;;;;;4.17;100.00;100576.63;10125510;28;20530;-68
2022/01/08 11:47:53;;;;;;;13.85;8.90;;;;;;;4.37;100.00;100587.34;10087735;28;20042;-68
2022/01/08 11:53:17;;;;;;;17.33;8.88;;;;;;;4.45;100.00;100574.31;10093939;28;20055;-69
2022/01/08 11:58:18;;;;;;;13.82;8.20;;;;;;;4.46;100.00;100555.09;10084797;28;20039;-68
2022/01/08 12:03:20;;;;;;;19.75;8.20;;;;;;;4.88;100.00;100555.59;10077567;28;20081;-68
2022/01/08 12:08:18;;;;;;;19.67;7.68;;;;;;;4.97;100.00;100556.63;10086991;28;20055;-68
2022/01/08 12:13:15;;;;;;;17.20;7.53;;;;;;;4.97;100.00;100543.06;10081632;28;20039;-68
2022/01/08 12:18:20;;;;;;;14.18;7.13;;;;;;;4.82;100.00;100542.09;10081838;28;20077;-68
2022/01/08 12:23:34;;;;;;;14.13;6.95;;;;;;;4.78;100.00;100545.63;10081726;28;20051;-68
2022/01/08 12:28:46;;;;;;;14.60;6.53;;;;;;;4.83;100.00;100526.66;10095518;28;20106;-69
2022/01/08 12:33:43;;;;;;;16.80;6.80;;;;;;;4.93;100.00;100531.19;10103232;28;20047;-68
2022/01/08 12:38:40;;;;;;;10.98;5.85;;;;;;;5.05;100.00;100528.88;10101616;28;20478;-68
2022/01/08 12:43:37;;;;;;;14.43;5.88;;;;;;;5.19;100.00;100529.84;10104285;28;20511;-68
2022/01/08 12:48:34;;;;;;;15.07;6.15;;;;;;;4.91;100.00;100522.53;10099342;28;20043;-69
2022/01/08 12:53:32;;;;;;;16.70;7.03;;;;;;;4.93;100.00;100514.91;10099577;28;20059;-69
2022/01/08 12:58:44;;;;;;;14.13;6.47;;;;;;;4.72;100.00;100515.09;10099843;28;20530;-68
2022/01/08 13:03:47;;;;;;;10.90;6.53;;;;;;;4.58;100.00;100508.72;10083619;28;20043;-69
2022/01/08 13:08:46;;;;;;;16.05;5.93;;;;;;;4.53;100.00;100506.03;10097355;28;20074;-69
2022/01/08 13:13:49;;;;;;;15.05;7.28;;;;;;;4.49;100.00;100496.88;10090139;28;20078;-69
2022/01/08 13:18:52;;;;;;;11.85;7.15;;;;;;;4.49;100.00;100494.97;10094485;28;20125;-69
2022/01/08 13:23:50;;;;;;;;;;;;;;;4.49;100.00;100496.88;10106349;28;20043;-68
2022/01/08 13:28:48;;;;;;;13.68;6.65;;;;;;;4.40;100.00;100475.78;10112540;28;19930;-68
2022/01/08 13:33:58;;;;;;;13.30;6.32;;;;;;;4.40;100.00;100481.22;10097258;28;20051;-69
2022/01/08 13:38:54;;;;;;;16.75;6.25;;;;;;;4.27;100.00;100468.34;10105809;28;20047;-69
2022/01/08 13:43:58;;;;;;;15.98;7.05;;;;;;;4.62;100.00;100456.41;10102232;28;20043;-68
2022/01/08 13:48:59;;;;;;;16.25;6.15;;;;;;;4.59;100.00;100450.75;10096865;28;20051;-68
2022/01/08 13:54:08;;;;;;;12.05;6.05;;;;;;;4.69;100.00;100447.97;10108658;28;20050;-68
2022/01/08 13:59:10;;;;;;;13.10;6.55;;;;;;;4.71;100.00;100459.31;10109238;28;20130;-69
2022/01/08 14:04:07;;;;;;;13.90;6.43;;;;;;;4.62;100.00;100451.00;10098598;28;20136;-69
2022/01/08 14:09:05;;;;;;;17.95;6.85;;;;;;;4.66;100.00;100440.38;10104597;28;20394;-68
2022/01/08 14:14:08;;;;;;;17.13;6.95;;;;;;;4.60;100.00;100436.13;10098710;28;20047;-67
2022/01/08 14:19:12;;;;;;;;;;;;;;;4.54;100.00;100431.84;10090903;28;20499;-69
2022/01/08 14:24:17;;;;;;;16.65;8.68;;;;;;;4.15;100.00;100429.97;10092565;28;19972;-68
2022/01/08 14:29:13;;;;;;;12.45;6.80;;;;;;;4.24;100.00;100428.28;10092153;28;20082;-69
2022/01/08 14:34:20;;;;;;;14.57;7.78;;;;;;;4.11;100.00;100428.94;10097576;28;20047;-68
2022/01/08 14:39:32;;;;;;;14.82;6.78;;;;;;;3.90;100.00;100412.00;10088666;28;20461;-69
2022/01/08 14:44:30;;;;;;;17.95;7.40;;;;;;;3.78;100.00;100412.34;10096002;28;20050;-69
2022/01/08 14:49:27;;;;;;;14.45;6.63;;;;;;;3.72;100.00;100405.38;10096355;28;20754;-69
2022/01/08 14:54:26;;;;;;;15.65;6.75;;;;;;;3.73;100.00;100407.00;10090900;28;20088;-68
2022/01/08 14:59:23;;;;;;;19.40;6.85;;;;;;;3.78;100.00;100399.66;10088184;28;20832;-68
2022/01/08 15:04:20;;;;;;;15.50;7.43;;;;;;;3.80;100.00;100397.47;10090485;28;20043;-67
2022/01/08 15:09:17;;;;;;;16.67;6.22;;;;;;;3.65;100.00;100383.25;10092591;28;20533;-68
2022/01/08 15:14:13;;;;;;;14.32;6.63;;;;;;;3.65;100.00;100372.44;10093593;28;20055;-68
2022/01/08 15:19:12;;;;;;;16.83;7.28;;;;;;;3.59;100.00;100358.94;10090867;28;20047;-68
2022/01/08 15:24:08;;;;;;;17.90;6.50;;;;;;;3.72;100.00;100351.31;10108503;28;20043;-68
2022/01/08 15:29:05;;;;;;;16.48;6.97;;;;;;;3.49;100.00;100337.38;10094121;28;20451;-68
2022/01/08 15:34:02;;;;;;;18.23;7.32;;;;;;;3.40;100.00;100328.25;10109416;28;20082;-68
2022/01/08 15:38:59;;;;;;;14.10;7.03;;;;;;;3.30;100.00;100322.91;10101871;28;20790;-68
2022/01/08 15:43:56;;;;;;;16.85;8.50;;;;;;;3.41;100.00;100307.44;10087148;28;20074;-68
2022/01/08 15:48:53;;;;;;;16.58;9.20;;;;;;;3.19;100.00;100300.53;10093370;28;20245;-67
2022/01/08 15:53:49;;;;;;;18.10;9.85;;;;;;;3.17;100.00;100290.00;10092925;28;20121;-68
2022/01/08 15:58:46;;;;;;;17.20;9.35;;;;;;;3.07;100.00;100287.34;10095320;28;20089;-67
2022/01/08 16:03:42;;;;;;;16.73;8.77;;;;;;;3.07;100.00;100276.56;10085292;28;20098;-69
2022/01/08 16:08:39;;;;;;;21.83;9.80;;;;;;;3.11;100.00;100266.81;10095851;28;20098;-69
2022/01/08 16:13:35;;;;;;;18.67;10.15;;;;;;;3.07;100.00;100260.34;10111726;28;20166;-68
2022/01/08 16:18:33;;;;;;;21.45;11.27;;;;;;;2.85;100.00;100265.31;10106400;28;20101;-70
2022/01/08 16:23:30;;;;;;;21.13;11.57;;;;;;;2.86;100.00;100237.25;10096032;28;20074;-68
2022/01/08 16:28:27;;;;;;;24.13;12.25;;;;;;;2.89;100.00;100231.28;10088035;28;20051;-68
2022/01/08 16:33:24;;;;;;;25.25;11.68;;;;;;;2.72;100.00;100215.44;10082281;28;20078;-68
2022/01/08 16:38:20;;;;;;;25.90;12.07;;;;;;;2.74;100.00;100203.28;10086801;28;20046;-68
2022/01/08 16:43:17;;;;;;;26.70;13.60;;;;;;;2.81;100.00;100185.94;10090939;28;20059;-68
2022/01/08 16:48:14;;;;;;;24.55;11.55;;;;;;;2.74;100.00;100173.59;10094879;28;20059;-68
2022/01/08 16:53:13;;;;;;;26.13;11.73;;;;;;;2.63;100.00;100168.53;10090121;28;20065;-68
2022/01/08 16:58:10;;;;;;;27.88;12.38;;;;;;;2.55;100.00;100155.59;10089005;28;20527;-68
2022/01/08 17:03:07;;;;;;;22.88;12.27;;;;;;;2.64;100.00;100148.53;10093115;28;20073;-69
2022/01/08 17:08:05;;;;;;;21.10;11.27;;;;;;;2.57;100.00;100140.72;10091698;28;20392;-68
2022/01/08 17:13:01;;;;;;;24.77;12.07;;;;;;;2.52;100.00;100119.97;10087622;28;20099;-68
2022/01/08 17:17:58;;;;;;;22.17;11.10;;;;;;;2.43;100.00;100104.66;10084022;28;20055;-68
2022/01/08 17:22:56;;;;;;;25.02;12.43;;;;;;;2.44;100.00;100095.50;10088864;28;20057;-68
2022/01/08 17:27:53;;;;;;;23.42;12.30;;;;;;;2.44;100.00;100072.00;10080918;28;20570;-67
2022/01/08 17:32:50;;;;;;;23.25;12.00;;;;;;;2.45;100.00;100064.72;10097404;28;20051;-68
2022/01/08 17:37:46;;;;;;;28.80;12.55;;;;;;;2.42;100.00;100054.50;10092795;28;20498;-68
2022/01/08 17:42:44;;;;;;;28.95;12.77;;;;;;;2.45;100.00;100038.53;10092516;28;20051;-68
2022/01/08 17:47:40;;;;;;;21.05;11.65;;;;;;;2.39;100.00;100028.03;10083955;28;20074;-67
2022/01/08 17:52:37;;;;;;;32.00;11.50;;;;;;;2.36;100.00;100007.84;10093188;28;20156;-71
2022/01/08 17:57:34;;;;;;;24.27;10.75;;;;;;;2.39;100.00;99990.28;10084657;28;20086;-68
2022/01/08 18:02:31;;;;;;;21.65;11.20;;;;;;;2.31;100.00;99984.38;10075492;28;20535;-70
2022/01/08 18:07:27;;;;;;;28.15;11.30;;;;;;;2.26;100.00;99976.34;10083717;28;20133;-69
2022/01/08 18:12:24;;;;;;;22.30;11.02;;;;;;;2.25;100.00;99963.94;10092445;28;20783;-69
2022/01/08 18:17:22;;;;;;;24.80;11.32;;;;;;;2.22;100.00;99948.31;10082538;28;20043;-68
2022/01/08 18:22:20;;;;;;;18.75;10.38;;;;;;;2.30;100.00;99939.63;10079165;28;20450;-69
2022/01/08 18:27:16;;;;;;;17.92;9.63;;;;;;;2.32;100.00;99925.84;10084735;28;20133;-70
2022/01/08 18:32:13;;;;;;;22.30;9.88;;;;;;;2.33;100.00;99905.09;10080990;28;20093;-68
2022/01/08 18:37:09;;;;;;;17.92;8.95;;;;;;;2.42;100.00;99898.00;10091055;28;20533;-68
2022/01/08 18:42:07;;;;;;;20.70;8.90;;;;;;;2.41;100.00;99880.19;10084502;28;20055;-68
2022/01/08 18:47:04;;;;;;;18.25;8.05;;;;;;;2.30;100.00;99869.50;10083941;28;20043;-68
2022/01/08 18:52:00;;;;;;;16.60;7.68;;;;;;;2.31;100.00;99860.28;10078133;28;20097;-68
2022/01/08 18:56:57;;;;;;;14.45;6.68;;;;;;;2.23;100.00;99850.13;10096252;28;20511;-68
2022/01/08 19:01:53;;;;;;;12.02;6.10;;;;;;;2.38;100.00;99849.19;10091779;28;20739;-69
2022/01/08 19:06:50;;;;;;;13.73;7.30;;;;;;;2.37;100.00;99835.97;10083815;28;20078;-69
2022/01/08 19:11:47;;;;;;;18.80;7.00;;;;;;;2.39;100.00;99812.22;10084861;28;20761;-69
2022/01/08 19:16:43;;;;;;;16.10;7.50;;;;;;;2.45;100.00;99800.28;10091068;28;20531;-69
2022/01/08 19:21:39;;;;;;;15.93;6.35;;;;;;;2.45;100.00;99794.88;10091534;28;20074;-69
2022/01/08 19:26:43;;;;;;;13.77;6.70;;;;;;;2.40;100.00;99784.16;10081836;28;20078;-68
2022/01/08 19:31:43;;;;;;;12.57;5.40;;;;;;;2.34;100.00;99771.81;10088610;28;20051;-68
2022/01/08 19:36:40;;;;;;;11.88;5.28;;;;;;;2.35;100.00;99762.63;10076935;28;20506;-68
2022/01/08 19:41:36;;;;;;;12.77;5.47;;;;;;;2.44;100.00;99744.72;10101636;28;20062;-68
2022/01/08 19:46:33;;;;;;;14.77;5.25;;;;;;;2.36;100.00;99734.56;10100362;28;20121;-68
2022/01/08 19:51:31;;;;;;;15.88;5.63;;;;;;;2.42;100.00;99717.22;10098390;28;20492;-68
2022/01/08 19:56:28;;;;;;;16.10;5.80;;;;;;;2.39;100.00;99699.72;10101263;28;20077;-68
2022/01/08 20:01:24;;;;;;;10.48;5.10;;;;;;;2.39;100.00;99693.50;10097300;28;20492;-68
2022/01/08 20:06:23;;;;;;;13.85;5.75;;;;;;;2.40;100.00;99685.13;10084080;28;20085;-68
2022/01/08 20:11:19;;;;;;;11.98;4.68;;;;;;;2.36;100.00;99664.41;10091989;28;20526;-68
2022/01/08 20:16:16;;;;;;;10.85;4.50;;;;;;;2.34;100.00;99651.22;10100631;28;20035;-68
2022/01/08 20:21:12;;;;;;;11.88;4.97;;;;;;;2.26;100.00;99647.25;10094603;28;20051;-69
2022/01/08 20:26:09;;;;;;;14.43;5.50;;;;;;;2.36;100.00;99634.75;10081069;28;20039;-69
2022/01/08 20:31:07;;;;;;;13.82;3.88;;;;;;;2.34;100.00;99607.25;10089649;28;20051;-67
2022/01/08 20:36:04;;;;;;;13.38;4.95;;;;;;;2.34;100.00;99604.56;10080758;28;20495;-68
2022/01/08 20:41:01;;;;;;;14.15;5.10;;;;;;;2.29;100.00;99590.03;10081950;28;20046;-68
2022/01/08 20:45:57;;;;;;;9.57;4.80;;;;;;;2.06;100.00;99577.41;10091208;28;20047;-69
2022/01/08 20:51:00;;;;;;;8.20;4.15;;;;;;;2.06;100.00;99566.59;10074853;28;20047;-68
2022/01/08 20:55:57;;;;;;;12.32;3.95;;;;;;;1.95;100.00;99567.81;10097620;28;20050;-69
2022/01/08 21:00:53;;;;;;;10.00;3.80;;;;;;;1.91;100.00;99547.94;10086437;28;20054;-68
2022/01/08 21:05:50;;;;;;;10.35;3.97;;;;;;;1.96;100.00;99534.41;10075421;28;20046;-69
2022/01/08 21:10:48;;;;;;;8.25;3.40;;;;;;;1.96;100.00;99529.00;10095763;28;20079;-68
2022/01/08 21:15:44;;;;;;;10.45;4.07;;;;;;;1.99;100.00;99517.63;10090329;28;20070;-69
2022/01/08 21:20:41;;;;;;;11.95;4.68;;;;;;;2.00;100.00;99497.69;10096937;28;20043;-69
2022/01/08 21:25:37;;;;;;;13.95;4.45;;;;;;;2.00;100.00;99489.59;10094233;28;20047;-68
2022/01/08 21:30:34;;;;;;;8.15;3.63;;;;;;;2.03;100.00;99481.72;10095397;28;20053;-68
2022/01/08 21:35:36;;;;;;;11.68;4.68;;;;;;;2.00;100.00;99484.22;10080636;28;20724;-68
2022/01/08 21:40:34;;;;;;;11.52;4.53;;;;;;;2.02;100.00;99463.13;10085978;28;20125;-68
2022/01/08 21:45:36;;;;;;;11.05;3.95;;;;;;;1.93;100.00;99444.13;10090006;28;20053;-69
2022/01/08 21:50:34;;;;;;;9.32;3.97;;;;;;;1.89;100.00;99438.50;10091462;28;20546;-69
2022/01/08 21:55:31;;;;;;;9.98;4.03;;;;;;;1.91;100.00;99429.34;10098464;28;20043;-69
2022/01/08 22:00:27;;;;;;;9.45;3.67;;;;;;;1.92;100.00;99420.16;10089980;28;20043;-69
2022/01/08 22:05:24;;;;;;;10.13;3.50;;;;;;;1.91;100.00;99418.56;10100291;28;20079;-69
2022/01/08 22:10:20;;;;;;;8.25;3.47;;;;;;;1.99;100.00;99393.63;10093948;28;20110;-69
2022/01/08 22:15:17;;;;;;;7.78;3.83;;;;;;;2.04;100.00;99382.75;10085902;28;20053;-69
2022/01/08 22:20:14;;;;;;;8.88;3.47;;;;;;;2.01;100.00;99364.47;10079148;28;20080;-69
2022/01/08 22:25:11;;;;;;;7.32;3.67;;;;;;;2.05;100.00;99358.22;10086733;28;20078;-66
2022/01/08 22:30:09;;;;;;;9.50;3.20;;;;;;;2.13;100.00;99343.25;10074859;28;20133;-68
2022/01/08 22:35:06;;;;;;;6.78;3.35;;;;;;;2.27;100.00;99333.28;10074461;28;20043;-68
2022/01/08 22:40:03;;;;;;;6.22;2.25;;;;;;;2.26;100.00;99318.22;10083551;28;20058;-67
2022/01/08 22:45:00;;;;;;;7.20;2.88;;;;;;;2.20;100.00;99314.00;10075646;28;20050;-66